Time;durP1;ratioP1;P1;durP2;ratioP2;P2;SDS_P1;SDS_P2;PMS_P1;PMS_P2;Temp;Humidity;BMP_temperature;BMP_pressure;BME280_temperature;BME280_humidity;BME280_pressure;Samples;Min_cycle;Max_cycle;Signal;HPM_P1;HPM_P2
2022/03/25 00:01:08;;;;;;;54.90;37.30;;;7.60;99.90;;;;;;4897262;29;20374;-87
2022/03/25 00:03:34;;;;;;;46.07;33.80;;;8.10;99.90;;;;;;4912243;29;20443;-88
2022/03/25 00:06:00;;;;;;;60.20;38.07;;;8.10;99.90;;;;;;4895184;29;20478;-88
2022/03/25 00:08:26;;;;;;;52.47;37.90;;;10.90;99.90;;;;;;4910979;29;20195;-88
2022/03/25 00:10:52;;;;;;;59.03;38.63;;;8.00;99.90;;;;;;4894163;29;20436;-87
2022/03/25 00:13:18;;;;;;;59.10;39.40;;;7.70;99.90;;;;;;4928512;29;20615;-87
2022/03/25 00:15:44;;;;;;;57.40;38.60;;;8.80;99.90;;;;;;4898316;29;20465;-88
2022/03/25 00:18:09;;;;;;;52.43;36.80;;;7.70;99.90;;;;;;4913906;29;20382;-88
2022/03/25 00:20:35;;;;;;;54.00;37.27;;;7.60;99.90;;;;;;4906801;29;20436;-88
2022/03/25 00:23:01;;;;;;;56.47;37.73;;;7.60;99.90;;;;;;4926101;29;20225;-87
2022/03/25 00:25:28;;;;;;;61.90;36.93;;;7.50;99.90;;;;;;4900001;29;20247;-88
2022/03/25 00:27:54;;;;;;;51.67;37.60;;;7.30;99.90;;;;;;4930928;29;20490;-88
2022/03/25 00:30:19;;;;;;;56.40;37.93;;;7.10;99.90;;;;;;4890048;29;20433;-88
2022/03/25 00:32:46;;;;;;;55.80;38.00;;;7.70;99.90;;;;;;4901332;29;20258;-87
2022/03/25 00:35:12;;;;;;;52.07;34.80;;;7.40;99.90;;;;;;4907776;29;20194;-87
2022/03/25 00:37:37;;;;;;;59.87;38.90;;;7.70;99.90;;;;;;4931993;29;20435;-89
2022/03/25 00:40:05;;;;;;;55.43;36.07;;;7.60;99.90;;;;;;4934207;29;20394;-87
2022/03/25 00:42:30;;;;;;;47.17;33.57;;;7.70;99.90;;;;;;4916846;29;20198;-88
2022/03/25 00:44:57;;;;;;;50.93;36.40;;;8.30;99.90;;;;;;4935549;29;20416;-87
2022/03/25 00:47:23;;;;;;;53.37;34.50;;;7.50;99.90;;;;;;4927456;29;20472;-89
2022/03/25 00:49:50;;;;;;;55.40;38.67;;;7.60;99.90;;;;;;4934162;29;20510;-90
2022/03/25 00:52:16;;;;;;;56.77;36.47;;;7.60;99.90;;;;;;4911864;29;20579;-88
2022/03/25 00:54:42;;;;;;;53.57;37.33;;;7.60;99.90;;;;;;4902005;29;20811;-88
2022/03/25 00:57:27;;;;;;;51.30;35.43;;;7.60;99.90;;;;;;4913528;29;20674;-87
2022/03/25 00:59:53;;;;;;;53.63;37.47;;;8.30;99.90;;;;;;4901880;29;20183;-88
2022/03/25 01:02:19;;;;;;;52.27;38.50;;;;;;;;;;4932355;29;20446;-87
2022/03/25 01:04:45;;;;;;;56.80;38.50;;;7.50;99.90;;;;;;4930376;29;20252;-87
2022/03/25 01:07:11;;;;;;;51.87;38.67;;;7.30;99.90;;;;;;4916324;29;21026;-89
2022/03/25 01:09:36;;;;;;;65.30;37.77;;;7.80;99.90;;;;;;4922472;29;20266;-89
2022/03/25 01:12:03;;;;;;;57.80;39.33;;;6.90;99.90;;;;;;4917103;29;20275;-88
2022/03/25 01:14:28;;;;;;;55.40;37.10;;;7.10;99.90;;;;;;4902729;29;20199;-87
2022/03/25 01:16:54;;;;;;;53.83;37.40;;;7.00;99.90;;;;;;4936626;29;20593;-88
2022/03/25 01:19:20;;;;;;;59.00;38.07;;;7.00;99.90;;;;;;4899632;29;20349;-88
2022/03/25 01:21:46;;;;;;;57.67;37.20;;;7.00;99.90;;;;;;4918017;29;20187;-89
2022/03/25 01:24:12;;;;;;;51.23;39.17;;;7.00;99.90;;;;;;4908639;29;20436;-88
2022/03/25 01:26:39;;;;;;;70.63;38.53;;;6.90;99.90;;;;;;4932790;29;20478;-87
2022/03/25 01:29:05;;;;;;;55.40;38.43;;;6.90;99.90;;;;;;4920309;29;20278;-87
2022/03/25 01:31:32;;;;;;;55.53;35.07;;;;;;;;;;4914914;29;20539;-87
2022/03/25 01:33:58;;;;;;;56.03;36.57;;;6.90;99.90;;;;;;4907132;29;20844;-87
2022/03/25 01:36:24;;;;;;;57.27;38.57;;;6.80;99.90;;;;;;4914177;29;20420;-87
2022/03/25 01:38:51;;;;;;;54.93;37.07;;;;;;;;;;4929945;29;20526;-88
2022/03/25 01:41:19;;;;;;;57.03;38.43;;;6.80;99.90;;;;;;4932173;29;20446;-88
2022/03/25 01:43:53;;;;;;;58.80;38.60;;;6.30;99.90;;;;;;4907200;29;20428;-89
2022/03/25 01:46:19;;;;;;;59.17;38.90;;;;;;;;;;4902024;29;20577;-88
2022/03/25 01:48:45;;;;;;;60.90;38.50;;;6.70;99.90;;;;;;4918701;29;20476;-89
2022/03/25 01:51:11;;;;;;;69.17;36.80;;;;;;;;;;4913717;29;20422;-88
2022/03/25 01:53:37;;;;;;;56.77;38.20;;;6.70;99.90;;;;;;4912044;29;20195;-88
2022/03/25 01:56:05;;;;;;;55.07;38.50;;;6.60;99.90;;;;;;4930906;29;20402;-86
2022/03/25 01:58:34;;;;;;;59.17;36.77;;;7.10;99.90;;;;;;4899770;29;20451;-88
2022/03/25 02:01:06;;;;;;;55.63;37.27;;;5.50;99.90;;;;;;4913236;29;20431;-88
2022/03/25 02:03:32;;;;;;;60.00;37.93;;;6.70;99.90;;;;;;4925434;29;20446;-88
2022/03/25 02:05:58;;;;;;;58.30;39.23;;;6.60;99.90;;;;;;4930632;29;20449;-87
2022/03/25 02:08:24;;;;;;;56.27;39.27;;;6.60;99.90;;;;;;4912063;29;20451;-88
2022/03/25 02:10:50;;;;;;;56.30;38.57;;;6.60;99.90;;;;;;4912274;29;20438;-88
2022/03/25 02:13:16;;;;;;;57.57;39.13;;;6.70;99.90;;;;;;4928047;29;20730;-88
2022/03/25 02:15:43;;;;;;;55.53;36.20;;;6.70;99.90;;;;;;4909185;29;20395;-88
2022/03/25 02:18:15;;;;;;;58.87;37.13;;;6.70;99.90;;;;;;4927863;29;20530;-88
2022/03/25 02:20:59;;;;;;;57.13;38.53;;;6.70;99.90;;;;;;4902733;29;20442;-88
2022/03/25 02:23:25;;;;;;;56.97;38.40;;;6.60;99.90;;;;;;4907895;29;20429;-87
2022/03/25 02:25:52;;;;;;;54.53;36.63;;;6.50;99.90;;;;;;4924479;29;20576;-87
2022/03/25 02:28:21;;;;;;;62.30;39.00;;;6.50;99.90;;;;;;4929637;29;20682;-88
2022/03/25 02:30:47;;;;;;;61.60;38.90;;;6.10;99.90;;;;;;4913372;29;20425;-87
2022/03/25 02:33:14;;;;;;;54.37;36.80;;;;;;;;;;4928850;29;20550;-86
2022/03/25 02:35:47;;;;;;;63.73;41.80;;;6.40;99.90;;;;;;4930257;29;20390;-87
2022/03/25 02:38:16;;;;;;;55.47;38.37;;;6.30;99.90;;;;;;4900783;29;20417;-87
2022/03/25 02:40:42;;;;;;;62.07;38.57;;;5.80;99.90;;;;;;4930571;29;20901;-87
2022/03/25 02:43:09;;;;;;;56.53;39.63;;;6.40;99.90;;;;;;4928314;29;20413;-87
2022/03/25 02:45:35;;;;;;;60.70;38.63;;;6.20;99.90;;;;;;4912226;29;20465;-86
2022/03/25 02:48:02;;;;;;;59.70;40.20;;;6.40;99.90;;;;;;4928037;29;20435;-88
2022/03/25 02:50:28;;;;;;;59.93;38.97;;;7.40;99.90;;;;;;4905483;29;20363;-88
2022/03/25 02:52:56;;;;;;;58.83;37.73;;;6.20;99.90;;;;;;4910384;29;20450;-87
2022/03/25 02:55:22;;;;;;;58.47;35.40;;;6.20;99.90;;;;;;4911800;29;20438;-88
2022/03/25 02:57:48;;;;;;;61.23;41.97;;;;;;;;;;4926305;29;20410;-89
2022/03/25 03:00:14;;;;;;;63.20;39.80;;;6.20;99.90;;;;;;4912833;29;20424;-88
2022/03/25 03:02:39;;;;;;;60.10;40.90;;;6.00;99.90;;;;;;4923997;29;20483;-88
2022/03/25 03:05:09;;;;;;;62.77;40.47;;;5.40;99.90;;;;;;4910823;29;20183;-88
2022/03/25 03:07:37;;;;;;;64.97;38.53;;;6.00;99.90;;;;;;4910236;29;20202;-89
2022/03/25 03:10:07;;;;;;;66.97;40.80;;;6.00;99.90;;;;;;4913012;29;20499;-88
2022/03/25 03:12:35;;;;;;;61.13;38.97;;;5.90;99.90;;;;;;4927957;29;20430;-88
2022/03/25 03:15:03;;;;;;;61.50;39.57;;;5.90;99.90;;;;;;4929681;29;20402;-88
2022/03/25 03:17:28;;;;;;;57.80;38.80;;;5.90;99.90;;;;;;4910507;29;20480;-87
2022/03/25 03:19:54;;;;;;;62.90;39.50;;;5.70;99.90;;;;;;4912918;29;20526;-88
2022/03/25 03:22:22;;;;;;;62.20;38.83;;;5.80;99.90;;;;;;4913114;29;20290;-88
2022/03/25 03:24:48;;;;;;;61.40;39.23;;;6.20;99.90;;;;;;4902763;29;20406;-88
2022/03/25 03:27:14;;;;;;;61.30;39.00;;;;;;;;;;4912346;29;20460;-87
2022/03/25 03:29:40;;;;;;;60.57;36.70;;;5.50;99.90;;;;;;4890045;29;20432;-88
2022/03/25 03:32:08;;;;;;;55.90;36.97;;;5.60;99.90;;;;;;4929903;29;20860;-88
2022/03/25 03:34:53;;;;;;;61.03;39.13;;;5.60;99.90;;;;;;4551882;29;10000383;-88
2022/03/25 03:37:22;;;;;;;62.00;40.13;;;5.70;99.90;;;;;;4882656;29;20600;-89
2022/03/25 03:39:48;;;;;;;60.80;37.53;;;5.30;99.90;;;;;;4883568;29;20448;-88
2022/03/25 03:42:15;;;;;;;59.67;36.53;;;5.40;99.90;;;;;;4900553;29;20527;-88
2022/03/25 03:44:41;;;;;;;61.33;40.23;;;;;;;;;;4894394;29;20818;-89
2022/03/25 03:47:08;;;;;;;63.90;41.23;;;5.60;99.90;;;;;;4891870;29;20455;-89
2022/03/25 03:49:37;;;;;;;55.50;37.13;;;5.60;99.90;;;;;;4906065;29;20447;-89
2022/03/25 03:52:05;;;;;;;62.63;38.43;;;5.80;99.90;;;;;;4909940;29;20423;-88
2022/03/25 03:54:33;;;;;;;54.80;34.67;;;5.60;99.90;;;;;;4908108;29;20854;-88
2022/03/25 03:56:59;;;;;;;65.07;40.00;;;5.60;99.90;;;;;;4893658;29;20515;-86
2022/03/25 03:59:25;;;;;;;63.33;40.90;;;8.30;99.90;;;;;;4901435;29;20435;-88
2022/03/25 04:01:51;;;;;;;60.50;39.13;;;;;;;;;;4907426;29;20822;-88
2022/03/25 04:04:17;;;;;;;64.90;38.87;;;5.40;99.90;;;;;;4889013;29;20419;-89
2022/03/25 04:06:43;;;;;;;59.73;38.90;;;5.30;99.90;;;;;;4902043;29;20425;-88
2022/03/25 04:09:09;;;;;;;64.97;39.23;;;5.20;99.90;;;;;;4899314;29;20406;-89
2022/03/25 04:11:35;;;;;;;59.03;36.57;;;3.90;99.90;;;;;;4915710;29;20405;-89
2022/03/25 04:14:00;;;;;;;63.00;41.67;;;4.90;99.90;;;;;;4901432;29;20195;-88
2022/03/25 04:16:28;;;;;;;62.73;39.30;;;7.60;99.90;;;;;;4915952;29;20635;-88
2022/03/25 04:18:54;;;;;;;61.05;39.97;;;;;;;;;;4901706;29;20590;-88
2022/03/25 04:21:20;;;;;;;58.90;37.20;;;5.30;99.90;;;;;;4914338;29;20195;-88
2022/03/25 04:23:46;;;;;;;62.03;39.77;;;5.40;99.90;;;;;;4895577;29;20439;-88
2022/03/25 04:26:12;;;;;;;58.53;39.47;;;4.80;99.90;;;;;;4912347;29;20202;-87
2022/03/25 04:28:38;;;;;;;65.43;36.40;;;;;;;;;;4912894;29;20207;-88
2022/03/25 04:31:05;;;;;;;60.27;40.70;;;5.20;99.90;;;;;;4915238;29;20294;-88
2022/03/25 04:33:35;;;;;;;61.30;38.77;;;5.20;99.90;;;;;;4917158;29;20413;-86
2022/03/25 04:36:01;;;;;;;65.47;40.30;;;7.20;99.90;;;;;;4915552;29;20489;-87
2022/03/25 04:38:28;;;;;;;69.10;40.67;;;5.10;99.90;;;;;;4914194;29;20497;-87
2022/03/25 04:40:53;;;;;;;64.97;40.30;;;5.20;99.90;;;;;;4915452;29;20431;-87
2022/03/25 04:43:19;;;;;;;67.10;42.73;;;5.00;99.90;;;;;;4914514;29;20433;-88
2022/03/25 04:45:46;;;;;;;65.00;39.53;;;;;;;;;;4913821;29;20553;-85
2022/03/25 04:48:14;;;;;;;64.38;40.20;;;5.00;99.90;;;;;;4930655;29;20198;-87
2022/03/25 04:50:40;;;;;;;59.70;36.50;;;;;;;;;;4915913;29;20234;-87
2022/03/25 04:53:06;;;;;;;68.13;40.73;;;4.50;99.90;;;;;;4912919;29;20398;-87
2022/03/25 04:55:32;;;;;;;65.07;37.27;;;4.80;99.90;;;;;;4932524;29;20544;-87
2022/03/25 04:57:58;;;;;;;62.47;39.40;;;4.80;99.90;;;;;;4924571;29;20878;-88
2022/03/25 05:00:23;;;;;;;61.30;40.00;;;6.10;99.90;;;;;;4922498;29;20186;-88
2022/03/25 05:02:49;;;;;;;63.73;39.13;;;4.90;99.90;;;;;;4931886;29;20196;-83
2022/03/25 05:05:15;;;;;;;61.73;37.90;;;;;;;;;;4911831;29;20545;-87
2022/03/25 05:07:43;;;;;;;62.73;39.60;;;4.90;99.90;;;;;;4912457;29;20659;-89
2022/03/25 05:10:10;;;;;;;56.97;39.33;;;4.80;99.90;;;;;;4909344;29;20659;-88
2022/03/25 05:12:36;;;;;;;62.35;39.20;;;5.00;99.90;;;;;;4913795;29;20420;-84
2022/03/25 05:15:02;;;;;;;61.87;38.27;;;5.00;99.90;;;;;;4915624;29;20187;-88
2022/03/25 05:17:28;;;;;;;55.77;34.13;;;4.60;99.90;;;;;;4930174;29;20219;-89
2022/03/25 05:19:54;;;;;;;67.80;40.70;;;5.10;99.90;;;;;;4918341;29;20874;-89
2022/03/25 05:22:21;;;;;;;63.13;39.47;;;6.00;99.90;;;;;;4930899;29;20188;-89
2022/03/25 05:24:46;;;;;;;56.63;35.47;;;5.10;99.90;;;;;;4932384;29;20478;-87
2022/03/25 05:27:12;;;;;;;58.23;35.80;;;;;;;;;;4915440;29;20580;-88
2022/03/25 05:29:38;;;;;;;62.83;37.03;;;5.00;99.90;;;;;;4917979;29;20239;-89
2022/03/25 05:32:04;;;;;;;62.40;39.57;;;4.00;99.90;;;;;;4917289;29;20405;-86
2022/03/25 05:34:30;;;;;;;59.03;38.37;;;2.90;99.90;;;;;;4931717;29;20545;-88
2022/03/25 05:36:56;;;;;;;56.80;36.87;;;4.70;99.90;;;;;;4932600;29;20893;-87
2022/03/25 05:39:21;;;;;;;57.07;32.40;;;6.70;99.90;;;;;;4930068;29;20190;-88
2022/03/25 05:41:47;;;;;;;62.67;36.10;;;4.80;99.90;;;;;;4930594;29;20498;-87
2022/03/25 05:44:13;;;;;;;57.97;36.67;;;4.90;99.90;;;;;;4895776;29;20745;-85
2022/03/25 05:46:38;;;;;;;55.50;37.03;;;4.10;99.90;;;;;;4908392;29;20410;-89
2022/03/25 05:49:05;;;;;;;58.73;35.97;;;5.00;99.90;;;;;;4897387;29;20684;-87
2022/03/25 05:51:31;;;;;;;59.53;38.30;;;4.90;99.90;;;;;;4900059;29;20266;-89
2022/03/25 05:53:57;;;;;;;61.90;38.63;;;4.90;99.90;;;;;;4900982;29;20537;-89
2022/03/25 05:56:23;;;;;;;59.10;33.93;;;4.90;99.90;;;;;;4905306;29;20219;-85
2022/03/25 05:58:49;;;;;;;54.60;36.43;;;5.10;99.90;;;;;;4915369;29;20434;-89
2022/03/25 06:01:15;;;;;;;63.17;34.70;;;5.00;99.90;;;;;;4912075;29;20489;-89
2022/03/25 06:03:41;;;;;;;54.23;36.60;;;5.00;99.90;;;;;;4918126;29;20406;-86
2022/03/25 06:06:07;;;;;;;53.60;35.50;;;;;;;;;;4917792;29;20427;-87
2022/03/25 06:08:33;;;;;;;58.17;33.60;;;5.10;99.90;;;;;;4922172;29;20184;-79
2022/03/25 06:11:22;;;;;;;59.07;34.60;;;4.50;99.90;;;;;;4901789;29;20399;-87
2022/03/25 06:13:48;;;;;;;55.33;35.47;;;7.80;99.90;;;;;;4912021;29;20838;-88
2022/03/25 06:16:13;;;;;;;53.37;35.60;;;6.50;99.90;;;;;;4894168;29;20454;-87
2022/03/25 06:18:39;;;;;;;56.07;36.27;;;7.90;99.90;;;;;;4895948;29;20228;-88
2022/03/25 06:21:05;;;;;;;51.47;33.57;;;5.60;99.90;;;;;;4895014;29;20188;-87
2022/03/25 06:23:31;;;;;;;54.30;32.40;;;5.90;99.90;;;;;;4918844;29;20180;-87
2022/03/25 06:25:56;;;;;;;52.43;33.80;;;6.20;99.90;;;;;;4919288;29;20207;-88
2022/03/25 06:28:22;;;;;;;51.63;33.20;;;6.40;99.90;;;;;;4918008;29;20540;-90
2022/03/25 06:30:49;;;;;;;49.60;34.67;;;6.60;99.90;;;;;;4923827;29;20223;-82
2022/03/25 06:33:15;;;;;;;49.60;35.03;;;6.10;99.90;;;;;;4903580;29;20418;-87
2022/03/25 06:35:41;;;;;;;49.17;33.53;;;;;;;;;;4921196;29;20472;-86
2022/03/25 06:38:08;;;;;;;51.73;33.77;;;7.40;99.90;;;;;;4923743;29;20167;-85
2022/03/25 06:41:04;;;;;;;53.40;33.13;;;7.00;99.90;;;;;;4920397;29;20432;-87
2022/03/25 06:43:34;;;;;;;46.10;31.20;;;8.30;99.90;;;;;;4909820;29;20427;-87
2022/03/25 06:46:04;;;;;;;45.60;31.60;;;11.30;99.90;;;;;;4910916;29;20522;-85
2022/03/25 06:48:33;;;;;;;63.90;35.17;;;9.20;99.90;;;;;;4909202;29;20456;-87
2022/03/25 06:51:04;;;;;;;48.20;32.77;;;9.10;99.90;;;;;;4920409;29;20420;-87
2022/03/25 06:53:33;;;;;;;41.23;32.80;;;9.30;99.90;;;;;;4909458;29;20451;-87
2022/03/25 06:55:59;;;;;;;42.77;31.00;;;9.50;99.90;;;;;;4904039;29;20490;-86
2022/03/25 06:58:25;;;;;;;49.63;34.00;;;10.30;99.90;;;;;;4905658;29;20441;-88
2022/03/25 07:00:51;;;;;;;43.23;32.53;;;10.10;99.90;;;;;;4237796;29;10000688;-88
2022/03/25 07:03:18;;;;;;;46.50;32.90;;;10.40;99.90;;;;;;4898846;29;20436;-87
2022/03/25 07:05:44;;;;;;;41.53;33.30;;;10.80;99.90;;;;;;4901631;29;20439;-87
2022/03/25 07:08:10;;;;;;;48.10;35.30;;;10.40;99.90;;;;;;4916589;29;20668;-77
2022/03/25 07:10:36;;;;;;;42.67;31.83;;;11.70;99.30;;;;;;4897252;29;20840;-87
2022/03/25 07:13:03;;;;;;;43.80;31.83;;;11.00;98.90;;;;;;4890088;29;20423;-86
2022/03/25 07:15:29;;;;;;;46.83;35.90;;;11.70;98.50;;;;;;4924867;29;20458;-85
2022/03/25 07:17:54;;;;;;;43.53;34.30;;;12.00;99.90;;;;;;4924605;29;20474;-86
2022/03/25 07:20:22;;;;;;;45.70;33.07;;;12.10;96.70;;;;;;4892147;29;20497;-84
2022/03/25 07:22:51;;;;;;;43.70;33.57;;;12.40;96.40;;;;;;4892463;29;20180;-86
2022/03/25 07:25:18;;;;;;;47.23;33.73;;;12.60;94.70;;;;;;4913601;29;20428;-84
2022/03/25 07:27:45;;;;;;;39.03;33.50;;;12.70;94.00;;;;;;4909936;29;21093;-79
2022/03/25 07:30:13;;;;;;;42.53;35.27;;;13.70;93.00;;;;;;4925117;29;20427;-89
2022/03/25 07:32:44;;;;;;;38.13;32.47;;;13.60;90.10;;;;;;4912927;29;20435;-80
2022/03/25 07:35:11;;;;;;;47.10;35.70;;;14.60;86.60;;;;;;4881639;29;20890;-90
2022/03/25 07:37:38;;;;;;;48.67;36.70;;;14.70;85.50;;;;;;4899377;29;20559;-89
2022/03/25 07:40:05;;;;;;;46.97;36.37;;;16.50;83.50;;;;;;4892302;29;20433;-85
2022/03/25 07:42:34;;;;;;;41.87;37.43;;;15.20;77.50;;;;;;4911077;29;20475;-87
2022/03/25 07:45:01;;;;;;;50.63;38.03;;;15.90;75.30;;;;;;4898233;29;20969;-87
2022/03/25 07:47:27;;;;;;;44.20;38.13;;;15.90;70.20;;;;;;4905177;29;20584;-84
2022/03/25 07:49:52;;;;;;;42.50;37.47;;;15.90;65.70;;;;;;4926956;29;20530;-87
2022/03/25 07:52:18;;;;;;;43.40;36.97;;;17.00;65.40;;;;;;4911071;29;20721;-81
2022/03/25 07:54:47;;;;;;;41.63;37.07;;;16.00;59.90;;;;;;4934462;29;20254;-86
2022/03/25 07:57:13;;;;;;;44.13;37.77;;;17.20;58.20;;;;;;4889591;29;20731;-87
2022/03/25 07:59:38;;;;;;;53.20;39.50;;;19.90;59.70;;;;;;4910343;29;20526;-81
2022/03/25 08:02:05;;;;;;;41.10;36.83;;;18.70;57.20;;;;;;4895078;29;20734;-82
2022/03/25 08:04:30;;;;;;;41.30;36.80;;;18.00;54.90;;;;;;4903396;29;20187;-81
2022/03/25 08:06:58;;;;;;;45.50;38.63;;;19.00;54.50;;;;;;4915277;29;20458;-88
2022/03/25 08:09:25;;;;;;;47.40;39.67;;;19.20;54.40;;;;;;4913892;29;20196;-84
2022/03/25 08:11:51;;;;;;;42.87;38.47;;;19.20;54.00;;;;;;4902721;29;20431;-87
2022/03/25 08:14:17;;;;;;;42.37;37.83;;;19.10;53.40;;;;;;4920479;29;20530;-87
2022/03/25 08:16:45;;;;;;;45.73;40.17;;;19.10;52.00;;;;;;4890089;29;20220;-87
2022/03/25 08:19:11;;;;;;;43.77;39.17;;;19.70;52.40;;;;;;4898085;29;20499;-87
2022/03/25 08:21:40;;;;;;;45.37;39.17;;;18.60;49.50;;;;;;4909253;29;20482;-86
2022/03/25 08:29:41;;;;;;;49.13;38.57;;;21.70;47.20;;;;;;4889908;29;21010;-88
2022/03/25 08:32:19;;;;;;;46.17;39.50;;;19.90;44.40;;;;;;4901337;29;20448;-86
2022/03/25 08:34:45;;;;;;;42.80;38.30;;;22.80;45.00;;;;;;4928004;29;20799;-85
2022/03/25 08:37:11;;;;;;;44.60;37.30;;;23.50;45.90;;;;;;4907687;29;20490;-86
2022/03/25 08:39:39;;;;;;;41.80;36.93;;;23.60;42.80;;;;;;4908287;29;20706;-86
2022/03/25 08:42:08;;;;;;;42.57;37.87;;;23.50;41.80;;;;;;4928638;29;20647;-86
2022/03/25 08:44:56;;;;;;;37.70;33.57;;;24.00;37.90;;;;;;4899452;29;20462;-88
2022/03/25 08:47:24;;;;;;;40.57;36.00;;;24.40;38.60;;;;;;4913357;29;20423;-88
2022/03/25 08:49:49;;;;;;;41.13;34.23;;;24.10;38.80;;;;;;4920364;29;20438;-86
2022/03/25 08:52:17;;;;;;;43.10;38.27;;;23.90;38.00;;;;;;4891839;29;20453;-88
2022/03/25 08:54:43;;;;;;;39.10;34.60;;;24.00;37.00;;;;;;4924263;29;20184;-86
2022/03/25 08:57:09;;;;;;;41.00;36.50;;;23.40;37.80;;;;;;4916351;29;20485;-86
2022/03/25 08:59:35;;;;;;;40.33;36.00;;;23.30;36.40;;;;;;4922940;29;20238;-85
2022/03/25 09:02:03;;;;;;;43.00;36.47;;;25.30;36.90;;;;;;4927844;29;20539;-86
2022/03/25 09:04:30;;;;;;;42.13;35.73;;;23.70;37.00;;;;;;4931741;29;20527;-84
2022/03/25 09:07:02;;;;;;;40.87;36.50;;;23.90;37.40;;;;;;4935403;29;20553;-88
2022/03/25 09:09:37;;;;;;;40.10;35.33;;;24.40;36.80;;;;;;4906297;29;20634;-87
2022/03/25 09:12:03;;;;;;;40.73;36.53;;;24.70;35.90;;;;;;4898378;29;20424;-87
2022/03/25 09:14:29;;;;;;;39.60;35.50;;;25.40;36.00;;;;;;4915058;29;20439;-81
2022/03/25 09:20:08;;;;;;;38.73;34.73;;;24.90;33.50;;;;;;5013270;23;20490;-87
2022/03/25 09:22:37;;;;;;;39.97;35.97;;;25.80;33.00;;;;;;4920868;29;20846;-85
2022/03/25 09:25:04;;;;;;;42.17;34.70;;;24.10;33.20;;;;;;4936503;29;20435;-87
2022/03/25 09:27:30;;;;;;;44.47;36.43;;;23.90;33.30;;;;;;4916089;29;20435;-84
2022/03/25 09:29:59;;;;;;;40.37;35.93;;;25.80;36.40;;;;;;4933881;29;20437;-85
2022/03/25 09:32:32;;;;;;;40.03;35.93;;;24.70;33.50;;;;;;4923322;29;20200;-87
2022/03/25 09:35:21;;;;;;;41.30;35.63;;;24.80;34.10;;;;;;4898146;29;20488;-88
2022/03/25 09:37:49;;;;;;;36.97;33.10;;;25.30;33.50;;;;;;4909461;29;20466;-83
2022/03/25 09:40:18;;;;;;;39.30;32.53;;;26.40;33.80;;;;;;4916227;29;20475;-84
2022/03/25 09:42:51;;;;;;;37.03;33.20;;;25.00;32.50;;;;;;4914981;29;20439;-84
2022/03/25 09:48:11;;;;;;;35.70;31.90;;;26.40;32.10;;;;;;4937160;29;20419;-86
2022/03/25 09:50:40;;;;;;;38.00;34.03;;;27.50;32.60;;;;;;4919402;29;20982;-84
2022/03/25 09:53:08;;;;;;;38.13;32.90;;;26.40;33.40;;;;;;4917727;29;21194;-82
2022/03/25 09:55:42;;;;;;;39.00;32.90;;;26.30;31.70;;;;;;4904951;29;20439;-82
2022/03/25 09:58:08;;;;;;;37.13;33.20;;;26.90;31.50;;;;;;4912283;29;20504;-80
2022/03/25 10:00:35;;;;;;;36.33;32.43;;;27.20;30.70;;;;;;4902225;29;21050;-81
2022/03/25 10:03:00;;;;;;;32.70;28.80;;;27.50;29.90;;;;;;4924776;29;20459;-80
2022/03/25 10:05:26;;;;;;;36.63;31.00;;;27.30;29.90;;;;;;4929055;29;20560;-80
2022/03/25 10:08:00;;;;;;;36.73;30.27;;;27.50;29.60;;;;;;4911102;29;20270;-80
2022/03/25 10:10:29;;;;;;;32.90;29.07;;;27.50;29.50;;;;;;4910810;29;20315;-80
2022/03/25 10:13:02;;;;;;;40.10;31.00;;;28.10;29.50;;;;;;4909883;29;20930;-80
2022/03/25 10:15:30;;;;;;;32.43;29.03;;;27.90;29.20;;;;;;4929797;29;20411;-79
2022/03/25 10:18:01;;;;;;;30.43;27.17;;;27.10;29.30;;;;;;4926231;29;20489;-80
2022/03/25 10:20:33;;;;;;;32.27;28.80;;;27.20;29.50;;;;;;4909938;29;20463;-79
2022/03/25 10:23:19;;;;;;;38.77;30.20;;;26.70;29.40;;;;;;4892949;29;20419;-79
2022/03/25 10:25:47;;;;;;;33.63;27.30;;;25.30;29.80;;;;;;4908817;29;20423;-78
2022/03/25 10:28:36;;;;;;;32.90;26.10;;;25.40;30.00;;;;;;4909731;29;21068;-78
2022/03/25 10:31:23;;;;;;;30.57;26.67;;;25.40;30.10;;;;;;4908250;29;20413;-80
2022/03/25 10:33:54;;;;;;;30.37;26.10;;;25.80;29.90;;;;;;4925346;23;20432;-88
2022/03/25 10:36:23;;;;;;;28.63;26.00;;;27.50;30.90;;;;;;4924564;29;20474;-87
2022/03/25 10:39:11;;;;;;;29.30;26.27;;;26.20;30.50;;;;;;4921643;29;20397;-89
2022/03/25 10:41:45;;;;;;;34.07;26.03;;;25.90;30.10;;;;;;4923846;29;20453;-90
2022/03/25 10:44:11;;;;;;;30.40;26.47;;;26.50;30.40;;;;;;4916264;29;20472;-88
2022/03/25 10:46:45;;;;;;;30.10;22.90;;;26.70;30.80;;;;;;4906663;29;20493;-86
2022/03/25 10:49:15;;;;;;;25.77;23.07;;;26.30;30.10;;;;;;4919046;29;20412;-87
2022/03/25 10:51:59;;;;;;;27.17;24.40;;;26.10;29.80;;;;;;4896356;29;20482;-88
2022/03/25 10:54:27;;;;;;;27.53;23.70;;;28.00;30.80;;;;;;4560497;29;10000250;-88
2022/03/25 10:56:55;;;;;;;27.53;24.30;;;26.70;29.90;;;;;;4915812;29;20204;-91
2022/03/25 10:59:47;;;;;;;26.93;24.20;;;26.90;29.70;;;;;;4887384;29;20465;-89
2022/03/25 11:03:12;;;;;;;26.37;23.63;;;26.80;29.60;;;;;;4917047;29;20483;-86
2022/03/25 11:06:42;;;;;;;28.00;22.83;;;26.20;30.00;;;;;;4916530;29;20468;-89
2022/03/25 11:10:09;;;;;;;28.73;25.73;;;26.80;30.20;;;;;;4913471;29;20855;-89
2022/03/25 11:13:31;;;;;;;27.23;24.47;;;27.50;31.10;;;;;;4915201;29;20451;-90
2022/03/25 11:17:15;;;;;;;29.27;25.97;;;26.20;30.40;;;;;;4882268;29;20430;-89
2022/03/25 11:20:37;;;;;;;28.90;25.90;;;25.60;30.80;;;;;;4917872;29;20432;-90
2022/03/25 11:24:12;;;;;;;25.83;23.17;;;26.70;29.90;;;;;;4920949;29;20583;-90
2022/03/25 11:28:06;;;;;;;33.17;25.10;;;28.20;30.30;;;;;;4916424;29;20991;-89
2022/03/25 11:31:41;;;;;;;27.03;24.20;;;28.00;29.70;;;;;;4892071;29;20466;-89
2022/03/25 11:35:04;;;;;;;27.10;24.20;;;26.70;30.00;;;;;;4913520;29;20527;-89
2022/03/25 11:38:35;;;;;;;27.70;24.67;;;27.60;30.00;;;;;;4899337;29;20591;-89
2022/03/25 11:42:00;;;;;;;29.37;23.60;;;27.10;29.20;;;;;;4911778;29;20448;-89
2022/03/25 11:45:35;;;;;;;27.90;24.60;;;26.80;30.20;;;;;;4913240;29;20449;-90
2022/03/25 11:48:24;;;;;;;26.50;20.77;;;27.00;29.90;;;;;;4914103;29;20459;-89
2022/03/25 11:52:13;;;;;;;25.17;22.57;;;25.80;30.70;;;;;;4914149;29;20436;-89
2022/03/25 11:55:45;;;;;;;23.87;21.30;;;26.20;30.50;;;;;;4909013;29;20448;-90
2022/03/25 11:59:14;;;;;;;28.37;24.53;;;26.10;30.50;;;;;;4912153;29;20433;-91
2022/03/25 12:02:44;;;;;;;23.47;20.97;;;25.00;30.40;;;;;;4909854;29;20414;-89
2022/03/25 12:05:30;;;;;;;29.03;23.47;;;24.90;30.20;;;;;;4921707;29;20466;-89
2022/03/25 12:09:00;;;;;;;30.57;24.77;;;24.40;32.30;;;;;;4926278;29;20507;-88
2022/03/25 12:12:34;;;;;;;24.53;20.53;;;22.80;31.70;;;;;;4930628;29;20431;-89
2022/03/25 12:16:03;;;;;;;21.40;19.10;;;23.70;31.00;;;;;;4916594;29;20444;-87
2022/03/25 12:19:26;;;;;;;26.93;18.60;;;22.60;30.70;;;;;;4908958;29;20476;-91
2022/03/25 12:22:18;;;;;;;24.17;21.57;;;23.70;30.90;;;;;;4909510;29;20422;-92
2022/03/25 12:25:17;;;;;;;25.33;22.43;;;24.50;33.60;;;;;;4943743;23;20630;-84
2022/03/25 12:27:43;;;;;;;25.87;22.00;;;24.00;30.80;;;;;;4921829;29;20513;-83
2022/03/25 12:30:10;;;;;;;27.00;22.90;;;24.80;30.50;;;;;;4949307;28;20422;-84
2022/03/25 12:32:37;;;;;;;27.17;22.10;;;25.80;30.00;;;;;;4905390;28;20563;-83
2022/03/25 12:35:16;;;;;;;30.33;22.93;;;25.50;29.70;;;;;;4925957;28;20453;-84
2022/03/25 12:38:10;;;;;;;26.23;23.47;;;25.20;29.70;;;;;;4936916;29;20421;-80
2022/03/25 12:40:36;;;;;;;27.53;23.23;;;25.80;29.80;;;;;;4917372;29;20442;-83
2022/03/25 12:43:08;;;;;;;31.23;23.17;;;26.40;29.80;;;;;;4932436;29;20438;-76
2022/03/25 12:45:44;;;;;;;26.57;23.73;;;26.40;29.80;;;;;;4941931;28;20451;-84
2022/03/25 12:48:25;;;;;;;26.50;23.27;;;27.30;30.50;;;;;;4912925;29;20990;-82
2022/03/25 12:50:54;;;;;;;28.83;24.07;;;25.90;28.80;;;;;;4908060;29;20985;-84
2022/03/25 12:53:25;;;;;;;27.40;24.67;;;27.80;29.10;;;;;;4915080;28;20446;-82
2022/03/25 12:55:53;;;;;;;28.00;24.13;;;27.50;28.90;;;;;;4908081;29;20809;-81
2022/03/25 12:58:22;;;;;;;28.97;25.57;;;27.10;29.00;;;;;;4931420;29;20981;-81
2022/03/25 13:00:53;;;;;;;37.93;29.50;;;25.60;29.10;;;;;;4930398;29;20794;-82
2022/03/25 13:03:21;;;;;;;31.13;25.70;;;24.70;29.90;;;;;;4920271;28;21059;-85
2022/03/25 13:05:47;;;;;;;34.53;25.00;;;25.20;30.00;;;;;;4951136;28;20850;-81
2022/03/25 13:08:13;;;;;;;31.00;25.93;;;25.30;29.70;;;;;;4935161;28;20446;-84
2022/03/25 13:10:41;;;;;;;28.33;24.50;;;26.00;29.80;;;;;;4933896;29;20498;-83
2022/03/25 13:13:12;;;;;;;28.40;24.57;;;26.80;29.60;;;;;;4917918;28;20446;-82
2022/03/25 13:15:45;;;;;;;27.73;24.80;;;27.30;29.30;;;;;;4933835;28;20706;-84
2022/03/25 13:18:12;;;;;;;29.63;24.30;;;26.40;29.50;;;;;;4905258;28;20437;-81